createdAt,value
2022-12-20T00:01:42.013Z,5.45
2022-12-20T00:03:53.845Z,5.44
2022-12-20T00:06:03.641Z,5.41
2022-12-20T00:08:13.848Z,5.40
2022-12-20T00:10:23.946Z,5.38
2022-12-20T00:12:33.643Z,5.38
2022-12-20T00:14:43.308Z,5.35
2022-12-20T00:16:53.442Z,5.32
2022-12-20T00:19:05.581Z,5.30
2022-12-20T00:21:16.655Z,5.27
2022-12-20T00:23:26.227Z,5.25
2022-12-20T00:25:35.799Z,5.24
2022-12-20T00:27:45.657Z,5.24
2022-12-20T00:29:55.875Z,5.23
2022-12-20T00:32:05.971Z,5.21
2022-12-20T00:34:16.024Z,5.19
2022-12-20T00:36:27.605Z,5.17
2022-12-20T00:38:38.494Z,5.16
2022-12-20T00:40:48.553Z,5.14
2022-12-20T00:42:58.452Z,5.12
2022-12-20T00:45:09.300Z,5.12
2022-12-20T00:47:19.520Z,5.12
2022-12-20T00:49:29.529Z,5.12
2022-12-20T00:51:42.254Z,5.10
2022-12-20T00:53:52.357Z,5.08
2022-12-20T00:56:02.503Z,5.06
2022-12-20T00:58:12.683Z,5.04
2022-12-20T01:00:24.176Z,5.03
2022-12-20T01:02:34.034Z,5.03
2022-12-20T01:04:43.828Z,5.03
2022-12-20T01:06:53.516Z,5.03
2022-12-20T01:09:03.252Z,5.02
2022-12-20T01:11:16.270Z,5.04
2022-12-20T01:13:26.039Z,5.04
2022-12-20T01:15:36.095Z,5.06
2022-12-20T01:17:46.175Z,5.07
2022-12-20T01:19:55.953Z,5.08
2022-12-20T01:22:05.854Z,5.09
2022-12-20T01:24:15.773Z,5.09
2022-12-20T01:26:27.154Z,5.06
2022-12-20T01:28:37.686Z,5.03
2022-12-20T01:30:47.915Z,4.97
2022-12-20T01:32:57.673Z,5.00
2022-12-20T01:35:08.283Z,4.99
2022-12-20T01:37:20.141Z,4.98
2022-12-20T01:39:29.766Z,4.97
2022-12-20T01:41:40.954Z,4.97
2022-12-20T01:43:56.103Z,4.95
2022-12-20T01:46:06.991Z,4.96
2022-12-20T01:48:19.383Z,4.96
2022-12-20T01:50:29.847Z,4.97
2022-12-20T01:52:42.928Z,4.97
2022-12-20T01:55:00.502Z,4.97
2022-12-20T01:57:15.255Z,4.98
2022-12-20T01:59:26.720Z,4.98
2022-12-20T02:01:38.248Z,4.98
2022-12-20T02:03:49.377Z,4.98
2022-12-20T02:05:59.662Z,4.98
2022-12-20T02:08:11.256Z,4.98
2022-12-20T02:10:24.823Z,4.98
2022-12-20T02:12:41.044Z,4.98
2022-12-20T02:15:15.614Z,4.97
2022-12-20T02:17:37.713Z,4.99
2022-12-20T02:20:23.412Z,4.99
2022-12-20T02:22:42.320Z,5.00
2022-12-20T02:25:17.194Z,5.00
2022-12-20T02:27:51.070Z,5.00
2022-12-20T02:30:11.181Z,4.98
2022-12-20T02:32:30.577Z,4.97
2022-12-20T02:34:43.660Z,4.96
2022-12-20T02:36:55.887Z,4.95
2022-12-20T02:39:05.971Z,4.94
2022-12-20T02:41:22.099Z,4.92
2022-12-20T02:43:53.263Z,4.90
2022-12-20T02:46:04.647Z,4.89
2022-12-20T02:48:15.464Z,4.86
2022-12-20T02:50:29.215Z,4.82
2022-12-20T02:52:42.646Z,4.77
2022-12-20T02:54:53.337Z,4.72
2022-12-20T02:57:10.479Z,4.67
2022-12-20T02:59:24.798Z,4.59
2022-12-20T03:01:39.887Z,4.52
2022-12-20T03:03:50.924Z,4.40
2022-12-20T03:06:01.947Z,4.29
2022-12-20T03:08:14.300Z,4.21
2022-12-20T03:10:24.979Z,4.16
2022-12-20T03:12:34.877Z,4.15
2022-12-20T03:14:44.901Z,4.15
2022-12-20T03:16:56.102Z,4.13
2022-12-20T03:19:06.311Z,4.10
2022-12-20T03:21:16.458Z,4.09
2022-12-20T03:23:26.388Z,4.06
2022-12-20T03:25:36.168Z,4.02
2022-12-20T03:27:46.423Z,3.98
2022-12-20T03:29:56.221Z,3.91
2022-12-20T03:32:06.292Z,3.84
2022-12-20T03:34:16.953Z,3.77
2022-12-20T03:36:26.586Z,3.72
2022-12-20T03:38:41.748Z,3.65
2022-12-20T03:40:51.898Z,3.59
2022-12-20T03:43:03.149Z,3.55
2022-12-20T03:45:14.164Z,3.49
2022-12-20T03:47:23.957Z,3.40
2022-12-20T03:49:34.146Z,3.33
2022-12-20T03:51:43.947Z,3.29
2022-12-20T03:53:54.637Z,3.24
2022-12-20T03:56:05.512Z,3.20
2022-12-20T03:58:15.658Z,3.16
2022-12-20T04:00:26.229Z,3.14
2022-12-20T04:02:37.261Z,3.11
2022-12-20T04:04:47.327Z,3.11
2022-12-20T04:06:57.581Z,3.11
2022-12-20T04:09:07.836Z,3.12
2022-12-20T04:11:23.037Z,3.15
2022-12-20T04:13:39.860Z,3.18
2022-12-20T04:15:54.162Z,3.21
2022-12-20T04:18:11.393Z,3.23
2022-12-20T04:20:22.098Z,3.26
2022-12-20T04:22:37.520Z,3.27
2022-12-20T04:24:49.515Z,3.29
2022-12-20T04:27:06.250Z,3.30
2022-12-20T04:29:16.157Z,3.28
2022-12-20T04:31:26.925Z,3.33
2022-12-20T04:33:37.288Z,3.34
2022-12-20T04:35:48.515Z,3.36
2022-12-20T04:37:58.162Z,3.38
2022-12-20T04:40:09.290Z,3.39
2022-12-20T04:42:27.789Z,3.42
2022-12-20T04:44:37.810Z,3.46
2022-12-20T04:46:48.213Z,3.52
2022-12-20T04:48:59.817Z,3.54
2022-12-20T04:51:08.763Z,3.52
2022-12-20T04:53:36.028Z,3.44
2022-12-20T04:55:45.745Z,3.37
2022-12-20T04:57:58.427Z,3.30
2022-12-20T05:00:15.882Z,3.26
2022-12-20T05:02:28.024Z,3.25
2022-12-20T05:04:43.673Z,3.22
2022-12-20T05:06:54.301Z,3.24
2022-12-20T05:09:04.678Z,3.21
2022-12-20T05:11:14.967Z,3.16
2022-12-20T05:13:24.955Z,3.12
2022-12-20T05:15:35.647Z,3.10
2022-12-20T05:17:45.826Z,3.09
2022-12-20T05:19:58.212Z,3.15
2022-12-20T05:22:31.144Z,3.17
2022-12-20T05:25:11.243Z,3.19
2022-12-20T05:27:23.369Z,3.19
2022-12-20T05:29:33.459Z,3.19
2022-12-20T05:31:43.658Z,3.18
2022-12-20T05:33:54.364Z,3.17
2022-12-20T05:36:05.694Z,3.17
2022-12-20T05:38:15.842Z,3.16
2022-12-20T05:40:25.679Z,3.14
2022-12-20T05:42:35.619Z,3.09
2022-12-20T05:44:46.191Z,3.06
2022-12-20T05:46:56.424Z,3.06
2022-12-20T05:49:10.027Z,3.09
2022-12-20T05:51:20.573Z,3.08
2022-12-20T05:53:37.387Z,3.04
2022-12-20T05:55:50.179Z,3.00
2022-12-20T05:58:00.530Z,2.96
2022-12-20T06:00:24.608Z,2.91
2022-12-20T06:02:35.046Z,2.87
2022-12-20T06:04:46.519Z,2.85
2022-12-20T06:07:00.699Z,2.83
2022-12-20T06:09:11.566Z,2.86
2022-12-20T06:11:30.460Z,2.86
2022-12-20T06:13:48.645Z,2.84
2022-12-20T06:15:58.781Z,2.82
2022-12-20T06:18:09.425Z,2.79
2022-12-20T06:20:21.799Z,2.77
2022-12-20T06:22:32.878Z,2.76
2022-12-20T06:24:48.299Z,2.74
2022-12-20T06:27:02.668Z,2.71
2022-12-20T06:29:14.674Z,2.69
2022-12-20T06:31:29.510Z,2.66
2022-12-20T06:33:39.612Z,2.67
2022-12-20T06:35:51.286Z,2.65
2022-12-20T06:38:03.909Z,2.65
2022-12-20T06:40:18.261Z,2.65
2022-12-20T06:42:28.206Z,2.63
2022-12-20T06:44:38.164Z,2.60
2022-12-20T06:46:48.550Z,2.56
2022-12-20T06:48:59.985Z,2.53
2022-12-20T06:51:11.443Z,2.45
2022-12-20T06:53:21.165Z,2.45
2022-12-20T06:55:31.373Z,2.46
2022-12-20T06:57:41.923Z,2.49
2022-12-20T06:59:53.381Z,2.51
2022-12-20T07:02:04.422Z,2.52
2022-12-20T07:04:15.099Z,2.48
2022-12-20T07:06:25.495Z,2.43
2022-12-20T07:08:35.396Z,2.38
2022-12-20T07:10:46.035Z,2.31
2022-12-20T07:12:56.121Z,2.26
2022-12-20T07:15:06.198Z,2.24
2022-12-20T07:17:16.314Z,2.23
2022-12-20T07:19:25.954Z,2.25
2022-12-20T07:21:35.857Z,2.25
2022-12-20T07:23:47.713Z,2.25
2022-12-20T07:26:01.468Z,2.18
2022-12-20T07:28:11.392Z,2.13
2022-12-20T07:30:22.091Z,2.09
2022-12-20T07:32:31.892Z,2.05
2022-12-20T07:34:42.394Z,2.01
2022-12-20T07:36:53.564Z,1.99
2022-12-20T07:39:03.610Z,2.00
2022-12-20T07:41:15.593Z,2.00
2022-12-20T07:43:25.469Z,1.97
2022-12-20T07:45:35.399Z,1.94
2022-12-20T07:47:47.089Z,1.92
2022-12-20T07:49:57.463Z,1.89
2022-12-20T07:52:10.240Z,1.89
2022-12-20T07:54:23.159Z,1.89
2022-12-20T07:56:40.878Z,1.90
2022-12-20T07:58:53.195Z,1.94
2022-12-20T08:01:03.627Z,1.95
2022-12-20T08:03:18.876Z,1.95
2022-12-20T08:05:29.268Z,1.92
2022-12-20T08:07:41.220Z,1.86
2022-12-20T08:09:49.191Z,1.80
2022-12-20T08:12:00.229Z,1.77
2022-12-20T08:14:11.471Z,1.72
2022-12-20T08:16:21.423Z,1.67
2022-12-20T08:18:31.297Z,1.66
2022-12-20T08:20:40.841Z,1.65
2022-12-20T08:22:50.863Z,1.60
2022-12-20T08:25:00.935Z,1.53
2022-12-20T08:27:10.749Z,1.46
2022-12-20T08:29:20.631Z,1.43
2022-12-20T08:31:30.650Z,1.41
2022-12-20T08:33:41.451Z,1.42
2022-12-20T08:35:58.660Z,1.45
2022-12-20T08:38:08.504Z,1.42
2022-12-20T08:40:19.487Z,1.36
2022-12-20T08:42:30.203Z,1.32
2022-12-20T08:44:41.016Z,1.29
2022-12-20T08:46:50.718Z,1.26
2022-12-20T08:49:00.894Z,1.25
2022-12-20T08:51:12.544Z,1.29
2022-12-20T08:53:22.724Z,1.32
2022-12-20T08:55:32.319Z,1.30
2022-12-20T08:57:42.361Z,1.26
2022-12-20T08:59:52.174Z,1.23
2022-12-20T09:02:02.732Z,1.20
2022-12-20T09:04:15.131Z,1.15
2022-12-20T09:06:23.541Z,1.12
2022-12-20T09:08:33.049Z,1.12
2022-12-20T09:10:42.849Z,1.09
2022-12-20T09:12:53.082Z,1.08
2022-12-20T09:15:02.709Z,1.06
2022-12-20T09:17:12.444Z,1.03
2022-12-20T09:19:22.152Z,1.02
2022-12-20T09:21:31.717Z,0.99
2022-12-20T09:23:42.189Z,0.99
2022-12-20T09:25:54.003Z,1.02
2022-12-20T09:28:04.024Z,1.02
2022-12-20T09:30:15.102Z,0.99
2022-12-20T09:32:24.607Z,0.97
2022-12-20T09:34:34.182Z,0.95
2022-12-20T09:36:43.814Z,0.94
2022-12-20T09:38:53.861Z,0.97
2022-12-20T09:41:07.104Z,0.98
2022-12-20T09:43:18.134Z,0.99
2022-12-20T09:45:31.627Z,0.97
2022-12-20T09:47:42.493Z,0.95
2022-12-20T09:49:56.535Z,0.95
2022-12-20T09:52:31.982Z,0.93
2022-12-20T09:54:53.514Z,0.98
2022-12-20T09:57:19.399Z,0.98
2022-12-20T09:59:31.983Z,0.98
2022-12-20T10:01:48.478Z,0.96
2022-12-20T10:04:01.739Z,0.89
2022-12-20T10:06:22.938Z,0.87
2022-12-20T10:08:46.825Z,0.89
2022-12-20T10:11:00.008Z,0.91
2022-12-20T10:13:22.904Z,0.90
2022-12-20T10:15:39.329Z,0.87
2022-12-20T10:18:05.595Z,0.85
2022-12-20T10:20:29.684Z,0.85
2022-12-20T10:22:45.498Z,0.86
2022-12-20T10:25:00.208Z,0.87
2022-12-20T10:27:17.282Z,0.85
2022-12-20T10:29:27.190Z,0.87
2022-12-20T10:31:38.359Z,0.86
2022-12-20T10:33:49.213Z,0.86
2022-12-20T10:36:19.396Z,0.86
2022-12-20T10:38:45.623Z,0.86
2022-12-20T10:41:22.977Z,0.87
2022-12-20T10:43:46.440Z,0.92
2022-12-20T10:46:03.530Z,0.95
2022-12-20T10:48:33.064Z,0.96
2022-12-20T10:50:43.027Z,0.93
2022-12-20T10:53:21.735Z,0.91
2022-12-20T10:55:42.542Z,0.91
2022-12-20T10:57:53.458Z,0.91
2022-12-20T11:00:06.398Z,0.94
2022-12-20T11:02:39.302Z,0.96
2022-12-20T11:05:01.885Z,0.96
2022-12-20T11:07:31.546Z,0.97
2022-12-20T11:09:54.314Z,0.92
2022-12-20T11:12:06.731Z,0.94
2022-12-20T11:14:22.387Z,0.92
2022-12-20T11:16:39.926Z,0.91
2022-12-20T11:18:58.861Z,0.93
2022-12-20T11:21:27.972Z,0.94
2022-12-20T11:23:44.010Z,0.94
2022-12-20T11:26:11.483Z,0.92
2022-12-20T11:28:36.992Z,0.91
2022-12-20T11:30:56.362Z,0.88
2022-12-20T11:33:28.962Z,0.90
2022-12-20T11:35:49.210Z,0.91
2022-12-20T11:38:11.422Z,0.89
2022-12-20T11:40:28.622Z,0.90
2022-12-20T11:42:53.089Z,0.91
2022-12-20T11:45:12.293Z,0.91
2022-12-20T11:47:54.327Z,0.92
2022-12-20T11:50:22.667Z,0.98
2022-12-20T11:52:42.738Z,1.02
2022-12-20T11:54:59.037Z,1.09
2022-12-20T11:57:18.469Z,1.14
2022-12-20T11:59:38.289Z,1.22
2022-12-20T12:01:53.702Z,1.27
2022-12-20T12:04:11.793Z,1.33
2022-12-20T12:06:28.554Z,1.37
2022-12-20T12:08:47.400Z,1.40
2022-12-20T12:11:03.226Z,1.39
2022-12-20T12:13:23.840Z,1.36
2022-12-20T12:15:37.873Z,1.33
2022-12-20T12:17:53.472Z,1.32
2022-12-20T12:20:24.039Z,1.30
2022-12-20T12:22:38.048Z,1.25
2022-12-20T12:24:50.828Z,1.24
2022-12-20T12:27:02.623Z,1.21
2022-12-20T12:29:17.398Z,1.18
2022-12-20T12:31:35.008Z,1.16
2022-12-20T12:33:50.453Z,1.13
2022-12-20T12:36:18.901Z,1.10
2022-12-20T12:39:01.934Z,1.12
2022-12-20T12:41:39.247Z,1.08
2022-12-20T12:43:55.543Z,1.03
2022-12-20T12:46:14.478Z,0.99
2022-12-20T12:48:33.174Z,0.95
2022-12-20T12:50:49.586Z,0.93
2022-12-20T12:53:01.250Z,0.94
2022-12-20T12:55:41.741Z,0.95
2022-12-20T12:58:15.239Z,0.92
2022-12-20T13:00:54.710Z,1.01
2022-12-20T13:03:16.428Z,1.02
2022-12-20T13:05:37.300Z,1.04
2022-12-20T13:07:47.430Z,1.04
2022-12-20T13:09:56.935Z,1.04
2022-12-20T13:12:51.848Z,1.04
2022-12-20T13:15:01.421Z,1.03
2022-12-20T13:17:47.182Z,0.99
2022-12-20T13:19:58.674Z,0.97
2022-12-20T13:22:23.693Z,0.96
2022-12-20T13:24:47.479Z,0.92
2022-12-20T13:26:58.307Z,0.86
2022-12-20T13:29:27.505Z,0.81
2022-12-20T13:31:37.408Z,0.75
2022-12-20T13:33:49.181Z,0.74
2022-12-20T13:36:04.924Z,0.72
2022-12-20T13:38:57.299Z,0.69
2022-12-20T13:41:21.777Z,0.67
2022-12-20T13:43:37.971Z,0.61
2022-12-20T13:45:52.652Z,0.57
2022-12-20T13:48:11.293Z,0.56
2022-12-20T13:50:33.621Z,0.54
2022-12-20T13:52:48.932Z,0.55
2022-12-20T13:55:02.282Z,0.55
2022-12-20T13:57:17.263Z,0.58
2022-12-20T13:59:33.010Z,0.60
2022-12-20T14:01:52.565Z,0.61
2022-12-20T14:04:07.583Z,0.58
2022-12-20T14:06:26.122Z,0.57
2022-12-20T14:08:39.201Z,0.56
2022-12-20T14:10:49.760Z,0.55
2022-12-20T14:12:59.879Z,0.54
2022-12-20T14:15:26.394Z,0.54
2022-12-20T14:17:42.857Z,0.55
2022-12-20T14:20:08.186Z,0.58
2022-12-20T14:22:18.492Z,0.63
2022-12-20T14:24:29.440Z,0.60
2022-12-20T14:26:45.047Z,0.57
2022-12-20T14:28:56.987Z,0.58
2022-12-20T14:31:08.073Z,0.65
2022-12-20T14:33:31.502Z,0.70
2022-12-20T14:35:47.859Z,0.76
2022-12-20T14:38:02.721Z,0.80
2022-12-20T14:40:22.995Z,0.84
2022-12-20T14:42:37.959Z,0.86
2022-12-20T14:44:48.873Z,0.89
2022-12-20T14:47:00.786Z,0.91
2022-12-20T14:49:23.860Z,0.93
2022-12-20T14:51:33.717Z,0.97
2022-12-20T14:53:47.941Z,1.01
2022-12-20T14:55:58.370Z,1.04
2022-12-20T14:58:25.124Z,1.08
2022-12-20T15:00:35.958Z,1.10
2022-12-20T15:02:52.664Z,1.12
2022-12-20T15:05:02.678Z,1.15
2022-12-20T15:07:34.515Z,1.19
2022-12-20T15:09:44.274Z,1.23
2022-12-20T15:11:55.120Z,1.22
2022-12-20T15:14:07.243Z,1.22
2022-12-20T15:16:18.807Z,1.25
2022-12-20T15:18:28.604Z,1.27
2022-12-20T15:20:38.974Z,1.30
2022-12-20T15:22:49.910Z,1.32
2022-12-20T15:25:01.384Z,1.35
2022-12-20T15:27:17.072Z,1.38
2022-12-20T15:29:28.284Z,1.41
2022-12-20T15:31:39.072Z,1.40
2022-12-20T15:33:49.554Z,1.37
2022-12-20T15:35:59.749Z,1.33
2022-12-20T15:38:14.331Z,1.29
2022-12-20T15:40:25.063Z,1.27
2022-12-20T15:42:34.899Z,1.24
2022-12-20T15:44:45.855Z,1.22
2022-12-20T15:46:57.488Z,1.21
2022-12-20T15:49:07.076Z,1.20
2022-12-20T15:51:23.781Z,1.18
2022-12-20T15:53:36.891Z,1.17
2022-12-20T15:55:47.494Z,1.15
2022-12-20T15:57:57.217Z,1.15
2022-12-20T16:00:08.547Z,1.19
2022-12-20T16:02:25.629Z,1.25
2022-12-20T16:04:35.775Z,1.32
2022-12-20T16:06:45.752Z,1.40
2022-12-20T16:08:55.935Z,1.41
2022-12-20T16:11:07.232Z,1.38
2022-12-20T16:13:27.371Z,1.32
2022-12-20T16:15:37.660Z,1.28
2022-12-20T16:17:47.534Z,1.24
2022-12-20T16:19:57.539Z,1.22
2022-12-20T16:22:07.254Z,1.24
2022-12-20T16:24:19.115Z,1.27
2022-12-20T16:26:30.349Z,1.28
2022-12-20T16:28:40.344Z,1.29
2022-12-20T16:30:53.408Z,1.28
2022-12-20T16:33:04.368Z,1.28
2022-12-20T16:35:29.437Z,1.31
2022-12-20T16:37:40.162Z,1.33
2022-12-20T16:39:50.782Z,1.34
2022-12-20T16:42:02.552Z,1.34
2022-12-20T16:44:17.591Z,1.39
2022-12-20T16:46:29.707Z,1.43
2022-12-20T16:48:37.456Z,1.47
2022-12-20T16:50:47.350Z,1.50
2022-12-20T16:52:57.103Z,1.53
2022-12-20T16:55:07.655Z,1.52
2022-12-20T16:57:18.045Z,1.52
2022-12-20T16:59:28.600Z,1.52
2022-12-20T17:01:40.369Z,1.52
2022-12-20T17:03:50.952Z,1.55
2022-12-20T17:06:01.085Z,1.57
2022-12-20T17:10:38.987Z,1.65
2022-12-20T17:12:48.941Z,1.67
2022-12-20T17:14:58.912Z,1.69
2022-12-20T17:17:08.520Z,1.71
2022-12-20T17:19:18.315Z,1.74
2022-12-20T17:21:31.802Z,1.76
2022-12-20T17:23:41.443Z,1.77
2022-12-20T17:25:54.342Z,1.76
2022-12-20T17:28:05.041Z,1.77
2022-12-20T17:30:16.357Z,1.78
2022-12-20T17:32:27.003Z,1.80
2022-12-20T17:34:36.898Z,1.81
2022-12-20T17:36:46.646Z,1.81
2022-12-20T17:38:56.638Z,1.82
2022-12-20T17:41:06.646Z,1.82
2022-12-20T17:43:16.821Z,1.84
2022-12-20T17:45:36.600Z,1.85
2022-12-20T17:47:47.397Z,1.86
2022-12-20T17:49:57.382Z,1.87
2022-12-20T17:52:07.322Z,1.87
2022-12-20T17:54:21.908Z,1.88
2022-12-20T17:56:33.483Z,1.88
2022-12-20T17:58:43.674Z,1.88
2022-12-20T18:00:57.065Z,1.87
2022-12-20T18:03:07.271Z,1.85
2022-12-20T18:05:17.716Z,1.80
2022-12-20T18:07:28.816Z,1.74
2022-12-20T18:09:38.567Z,1.72
2022-12-20T18:11:48.558Z,1.70
2022-12-20T18:13:59.700Z,1.69
2022-12-20T18:16:19.625Z,1.68
2022-12-20T18:18:35.172Z,1.66
2022-12-20T18:20:46.855Z,1.67
2022-12-20T18:22:56.448Z,1.69
2022-12-20T18:25:08.980Z,1.74
2022-12-20T18:27:25.184Z,1.78
2022-12-20T18:29:38.984Z,1.82
2022-12-20T18:31:48.526Z,1.86
2022-12-20T18:33:59.403Z,1.88
2022-12-20T18:36:11.422Z,1.92
2022-12-20T18:38:23.854Z,1.96
2022-12-20T18:40:33.659Z,2.00
2022-12-20T18:42:43.526Z,2.03
2022-12-20T18:44:53.557Z,2.06
2022-12-20T18:47:04.548Z,2.08
2022-12-20T18:49:14.374Z,2.11
2022-12-20T18:51:26.258Z,2.14
2022-12-20T18:53:39.957Z,2.18
2022-12-20T18:55:50.085Z,2.22
2022-12-20T18:57:59.798Z,2.27
2022-12-20T19:00:12.163Z,2.31
2022-12-20T19:02:22.367Z,2.35
2022-12-20T19:04:32.899Z,2.39
2022-12-20T19:06:42.969Z,2.46
2022-12-20T19:08:53.061Z,2.51
2022-12-20T19:11:06.689Z,2.57
2022-12-20T19:13:18.151Z,2.62
2022-12-20T19:15:28.054Z,2.65
2022-12-20T19:17:38.133Z,2.68
2022-12-20T19:19:47.946Z,2.71
2022-12-20T19:21:57.737Z,2.72
2022-12-20T19:24:10.204Z,2.75
2022-12-20T19:26:21.306Z,2.76
2022-12-20T19:28:31.429Z,2.75
2022-12-20T19:30:42.052Z,2.79
2022-12-20T19:32:52.483Z,2.80
2022-12-20T19:35:23.405Z,2.82
2022-12-20T19:37:37.358Z,2.84
2022-12-20T19:39:47.823Z,2.87
2022-12-20T19:42:22.907Z,2.91
2022-12-20T19:44:28.821Z,2.98
2022-12-20T19:46:39.759Z,3.05
2022-12-20T19:48:49.291Z,3.09
2022-12-20T19:51:07.033Z,3.12
2022-12-20T19:53:16.882Z,3.17
2022-12-20T19:55:28.761Z,3.22
2022-12-20T19:57:36.828Z,3.25
2022-12-20T19:59:49.695Z,3.26
2022-12-20T20:02:04.299Z,3.23
2022-12-20T20:04:14.272Z,3.22
2022-12-20T20:06:24.808Z,3.23
2022-12-20T20:08:35.169Z,3.23
2022-12-20T20:10:52.025Z,3.23
2022-12-20T20:13:01.809Z,3.23
2022-12-20T20:15:13.361Z,3.24
2022-12-20T20:17:23.526Z,3.26
2022-12-20T20:19:33.799Z,3.29
2022-12-20T20:21:43.770Z,3.32
2022-12-20T20:23:54.341Z,3.37
2022-12-20T20:26:07.807Z,3.43
2022-12-20T20:28:17.726Z,3.48
2022-12-20T20:30:27.609Z,3.54
2022-12-20T20:32:37.933Z,3.60
2022-12-20T20:34:47.503Z,3.65
2022-12-20T20:36:57.198Z,3.72
2022-12-20T20:39:09.587Z,3.79
2022-12-20T20:41:19.861Z,3.86
2022-12-20T20:43:30.136Z,3.92
2022-12-20T20:45:40.785Z,3.99
2022-12-20T20:47:50.426Z,4.05
2022-12-20T20:50:00.312Z,4.10
2022-12-20T20:52:10.871Z,4.15
2022-12-20T20:54:21.362Z,4.18
2022-12-20T20:56:31.944Z,4.21
2022-12-20T20:58:41.980Z,4.24
2022-12-20T21:00:56.233Z,4.26
2022-12-20T21:03:07.034Z,4.27
2022-12-20T21:06:06.238Z,4.27
2022-12-20T21:07:47.498Z,4.28
2022-12-20T21:09:57.449Z,4.31
2022-12-20T21:15:20.250Z,4.39
2022-12-20T21:17:11.276Z,4.49
2022-12-20T21:19:21.543Z,4.55
2022-12-20T21:21:31.179Z,4.63
2022-12-20T21:23:41.360Z,4.69
2022-12-20T21:26:00.171Z,4.75
2022-12-20T21:28:12.226Z,4.83
2022-12-20T21:30:25.489Z,4.92
2022-12-20T21:32:35.583Z,4.99
2022-12-20T21:34:45.712Z,5.09
2022-12-20T21:36:55.381Z,5.21
2022-12-20T21:39:04.990Z,5.34
2022-12-20T21:41:15.190Z,5.45
2022-12-20T21:43:25.175Z,5.60
2022-12-20T21:45:37.226Z,5.71
2022-12-20T21:47:46.842Z,5.87
2022-12-20T21:49:57.780Z,5.99
2022-12-20T21:52:08.606Z,6.09
2022-12-20T21:54:18.129Z,6.21
2022-12-20T21:56:29.991Z,6.31
2022-12-20T21:58:40.410Z,6.42
2022-12-20T22:00:54.550Z,6.51
2022-12-20T22:03:05.107Z,6.62
2022-12-20T22:05:15.819Z,6.72
2022-12-20T22:07:25.940Z,6.80
2022-12-20T22:09:35.852Z,6.87
2022-12-20T22:11:45.611Z,6.93
2022-12-20T22:13:57.184Z,7.00
2022-12-20T22:16:14.062Z,7.05
2022-12-20T22:18:25.126Z,7.09
2022-12-20T22:20:35.386Z,7.13
2022-12-20T22:22:45.053Z,7.17
2022-12-20T22:24:55.149Z,7.20
2022-12-20T22:27:11.157Z,7.23
2022-12-20T22:29:21.828Z,7.25
2022-12-20T22:31:32.155Z,7.29
2022-12-20T22:33:42.126Z,7.33
2022-12-20T22:35:52.550Z,7.36
2022-12-20T22:38:03.586Z,7.41
2022-12-20T22:40:15.173Z,7.46
2022-12-20T22:42:24.931Z,7.50
2022-12-20T22:44:34.848Z,7.53
2022-12-20T22:46:45.296Z,7.55
2022-12-20T22:48:55.056Z,7.58
2022-12-20T22:51:06.803Z,7.61
2022-12-20T22:53:16.529Z,7.63
2022-12-20T22:55:26.762Z,7.67
2022-12-20T22:57:37.899Z,7.69
2022-12-20T22:59:47.737Z,7.73
2022-12-20T23:01:57.802Z,7.76
2022-12-20T23:04:10.805Z,7.78
2022-12-20T23:06:23.556Z,7.80
2022-12-20T23:08:36.126Z,7.82
2022-12-20T23:11:03.464Z,7.84
2022-12-20T23:13:32.483Z,7.85
2022-12-20T23:15:42.209Z,7.87
2022-12-20T23:17:52.590Z,7.88
2022-12-20T23:20:19.679Z,7.88
2022-12-20T23:22:44.128Z,7.90
2022-12-20T23:24:53.976Z,7.92
2022-12-20T23:27:03.775Z,7.94
2022-12-20T23:29:14.261Z,7.96
2022-12-20T23:31:24.207Z,7.97
2022-12-20T23:33:34.068Z,7.97
2022-12-20T23:35:43.785Z,7.97
2022-12-20T23:37:53.749Z,7.99
2022-12-20T23:40:03.582Z,7.99
2022-12-20T23:42:13.244Z,7.99
2022-12-20T23:44:22.955Z,7.99
2022-12-20T23:46:32.904Z,8.00
2022-12-20T23:48:42.912Z,8.01
2022-12-20T23:51:01.112Z,8.01
2022-12-20T23:53:10.866Z,8.02
2022-12-20T23:55:21.075Z,8.03
2022-12-20T23:57:32.998Z,8.03
2022-12-20T23:59:42.942Z,8.05
